Time;durP1;ratioP1;P1;durP2;ratioP2;P2;SDS_P1;SDS_P2;PMS_P1;PMS_P2;Temp;Humidity;BMP_temperature;BMP_pressure;BME280_temperature;BME280_humidity;BME280_pressure;Samples;Min_cycle;Max_cycle;Signal;HPM_P1;HPM_P2
2023/06/03 00:01:27;;;;;;;5.60;2.10;;;;;;;5.19;100.00;98970.00;5064797;28;20052;-59
2023/06/03 00:03:57;;;;;;;5.45;1.67;;;;;;;5.11;100.00;98982.22;5054178;28;20040;-59
2023/06/03 00:06:28;;;;;;;3.47;1.40;;;;;;;5.13;100.00;98983.91;5063681;28;20056;-60
2023/06/03 00:09:00;;;;;;;7.28;2.42;;;;;;;5.12;100.00;98982.22;5062956;28;20071;-59
2023/06/03 00:11:32;;;;;;;6.65;2.42;;;;;;;5.04;100.00;98973.72;5039092;28;20066;-60
2023/06/03 00:14:03;;;;;;;8.13;2.38;;;;;;;5.12;100.00;98961.50;5044654;28;20048;-59
2023/06/03 00:16:34;;;;;;;5.03;2.10;;;;;;;5.17;100.00;98964.88;5042855;28;20738;-60
2023/06/03 00:19:05;;;;;;;3.65;1.52;;;;;;;4.99;100.00;98903.00;5052239;28;20091;-60
2023/06/03 00:21:35;;;;;;;5.32;2.22;;;;;;;5.36;100.00;98959.38;5040516;28;20488;-60
2023/06/03 00:24:08;;;;;;;4.03;1.85;;;;;;;5.17;100.00;98938.97;5062088;28;20062;-60
2023/06/03 00:26:39;;;;;;;4.28;2.10;;;;;;;5.38;100.00;98968.84;5054152;28;20036;-61
2023/06/03 00:29:09;;;;;;;8.57;2.40;;;;;;;5.40;100.00;98955.88;5054195;28;20113;-59
2023/06/03 00:31:40;;;;;;;8.75;2.35;;;;;;;5.44;100.00;98952.34;5039143;28;20052;-61
2023/06/03 00:34:11;;;;;;;6.28;2.08;;;;;;;5.49;100.00;98966.09;5059533;28;20062;-61
2023/06/03 00:36:41;;;;;;;5.25;1.88;;;;;;;5.56;100.00;98961.66;5049720;28;20544;-61
2023/06/03 00:39:14;;;;;;;5.28;2.20;;;;;;;5.61;100.00;98965.88;5059981;28;20048;-61
2023/06/03 00:41:44;;;;;;;6.43;2.13;;;;;;;5.71;100.00;98970.91;5050078;28;20051;-60
2023/06/03 00:44:15;;;;;;;7.95;2.60;;;;;;;5.75;100.00;98967.38;5059437;28;20072;-60
2023/06/03 00:46:46;;;;;;;3.92;1.90;;;;;;;5.69;100.00;98981.31;5048326;28;20059;-62
2023/06/03 00:49:17;;;;;;;4.78;1.83;;;;;;;5.71;100.00;98973.50;5060423;28;20123;-61
2023/06/03 00:51:48;;;;;;;4.03;2.22;;;;;;;5.81;100.00;98964.66;5046752;28;20071;-60
2023/06/03 00:54:20;;;;;;;6.72;2.67;;;;;;;5.95;100.00;98965.31;5057142;28;20525;-61
2023/06/03 00:56:51;;;;;;;5.07;1.70;;;;;;;5.72;100.00;98921.66;5046285;28;20068;-60
2023/06/03 00:59:22;;;;;;;8.50;2.45;;;;;;;6.03;100.00;98979.00;5059325;28;20052;-62
2023/06/03 01:01:53;;;;;;;5.50;2.20;;;;;;;5.90;100.00;98982.66;5047598;28;20055;-64
2023/06/03 01:04:25;;;;;;;5.88;2.65;;;;;;;5.87;100.00;98987.91;5060065;28;20452;-61
2023/06/03 01:07:07;;;;;;;6.15;1.80;;;;;;;5.75;100.00;98996.75;5047594;28;20060;-61
2023/06/03 01:09:51;;;;;;;8.63;2.15;;;;;;;5.72;100.00;98980.41;5048031;28;20618;-63
2023/06/03 01:12:31;;;;;;;6.82;2.05;;;;;;;5.88;100.00;98994.78;5057406;28;20052;-62
2023/06/03 01:15:06;;;;;;;4.88;2.15;;;;;;;5.87;100.00;98987.91;5047966;28;20058;-61
2023/06/03 01:17:39;;;;;;;4.68;1.95;;;;;;;5.75;100.00;98977.75;5047814;28;20064;-61
2023/06/03 01:20:11;;;;;;;5.32;1.70;;;;;;;5.64;100.00;98990.88;5058898;28;20048;-60
2023/06/03 01:22:44;;;;;;;7.38;1.90;;;;;;;5.56;100.00;98983.22;5047836;28;20056;-61
2023/06/03 01:25:20;;;;;;;7.80;1.95;;;;;;;5.59;100.00;98993.56;5058782;28;20052;-61
2023/06/03 01:27:57;;;;;;;6.95;2.50;;;;;;;5.71;100.00;98997.66;5047514;28;20063;-59
2023/06/03 01:30:28;;;;;;;7.55;2.30;;;;;;;5.71;100.00;98994.22;5058053;28;20098;-63
2023/06/03 01:33:00;;;;;;;7.25;2.47;;;;;;;5.69;100.00;98998.56;5047664;28;20074;-60
2023/06/03 01:35:32;;;;;;;5.80;2.10;;;;;;;5.61;100.00;98986.59;5047034;28;20048;-61
2023/06/03 01:38:04;;;;;;;8.93;2.10;;;;;;;5.54;100.00;99000.56;5058455;28;20125;-61
2023/06/03 01:40:37;;;;;;;8.63;2.92;;;;;;;5.38;100.00;98976.63;5048135;28;20403;-62
2023/06/03 01:43:08;;;;;;;10.68;2.38;;;;;;;5.48;100.00;98984.25;5059450;28;20151;-61
2023/06/03 01:45:39;;;;;;;7.60;2.20;;;;;;;5.52;100.00;98991.97;5046636;28;20052;-61
2023/06/03 01:48:10;;;;;;;5.93;1.77;;;;;;;5.44;100.00;98988.63;5058551;28;20135;-62
2023/06/03 01:50:43;;;;;;;8.05;2.45;;;;;;;5.46;100.00;98981.66;5047802;28;20401;-61
2023/06/03 01:53:14;;;;;;;7.65;2.30;;;;;;;5.45;100.00;98995.53;5058460;28;20052;-62
2023/06/03 01:55:47;;;;;;;6.20;2.28;;;;;;;5.43;100.00;98989.50;5048167;28;20144;-61
2023/06/03 01:58:18;;;;;;;6.80;2.10;;;;;;;5.18;100.00;98951.03;5059734;28;20060;-59
2023/06/03 02:00:48;;;;;;;11.23;2.05;;;;;;;5.40;100.00;98986.97;5047846;28;20848;-61
2023/06/03 02:03:19;;;;;;;6.97;2.55;;;;;;;5.28;100.00;98987.16;5058020;28;20135;-60
2023/06/03 02:05:50;;;;;;;10.65;2.40;;;;;;;5.23;100.00;99000.16;5049363;28;21690;-60
2023/06/03 02:08:21;;;;;;;8.75;1.98;;;;;;;5.26;100.00;98991.50;5062402;28;20596;-61
2023/06/03 02:10:54;;;;;;;5.55;2.03;;;;;;;5.22;100.00;98995.00;5050772;28;20050;-62
2023/06/03 02:13:24;;;;;;;6.90;1.90;;;;;;;5.19;100.00;98991.59;5062587;28;20105;-62
2023/06/03 02:15:55;;;;;;;7.32;2.05;;;;;;;5.21;100.00;99001.06;5051098;28;20056;-61
2023/06/03 02:18:26;;;;;;;5.78;1.73;;;;;;;5.24;100.00;98985.47;5061674;28;20054;-61
2023/06/03 02:20:57;;;;;;;8.15;1.83;;;;;;;5.42;100.00;98992.97;5034154;28;20131;-61
2023/06/03 02:23:28;;;;;;;7.43;2.13;;;;;;;5.50;100.00;98993.72;5052459;28;20796;-60
2023/06/03 02:26:01;;;;;;;7.93;1.55;;;;;;;5.50;100.00;98983.34;5051145;28;20044;-60
2023/06/03 02:28:32;;;;;;;7.72;2.00;;;;;;;5.66;100.00;98993.44;5042604;28;20051;-61
2023/06/03 02:31:03;;;;;;;6.53;2.15;;;;;;;5.76;100.00;99010.56;5042123;28;20048;-62
2023/06/03 02:33:33;;;;;;;7.97;2.70;;;;;;;5.72;100.00;98998.56;5032295;28;20098;-62
2023/06/03 02:36:04;;;;;;;6.10;1.92;;;;;;;5.76;100.00;98995.00;5055215;28;20443;-64
2023/06/03 02:38:36;;;;;;;6.63;1.70;;;;;;;5.65;100.00;98992.59;5051673;28;20058;-62
2023/06/03 02:41:09;;;;;;;10.80;2.30;;;;;;;5.63;100.00;98984.84;5061878;28;20052;-62
2023/06/03 02:43:40;;;;;;;6.35;1.90;;;;;;;5.71;100.00;98986.44;5051810;28;20055;-61
2023/06/03 02:46:12;;;;;;;6.68;1.90;;;;;;;5.79;100.00;98994.94;5062514;28;20117;-62
2023/06/03 02:48:43;;;;;;;5.18;1.80;;;;;;;5.84;100.00;98994.00;5051201;28;20910;-61
2023/06/03 02:51:15;;;;;;;5.90;1.60;;;;;;;5.93;100.00;99010.28;5062080;28;20130;-62
2023/06/03 02:53:45;;;;;;;8.60;2.08;;;;;;;5.97;100.00;98999.84;5051533;28;20140;-62
2023/06/03 02:56:17;;;;;;;5.72;1.75;;;;;;;5.86;98.50;99001.75;5062184;28;20582;-60
2023/06/03 02:58:48;;;;;;;10.25;2.42;;;;;;;5.80;98.27;99004.44;5051699;28;20166;-60
2023/06/03 03:01:20;;;;;;;9.45;1.90;;;;;;;5.37;98.51;98925.72;5062558;28;20109;-60
2023/06/03 03:03:51;;;;;;;8.98;2.33;;;;;;;5.82;98.27;99007.88;5051406;28;20052;-61
2023/06/03 03:06:24;;;;;;;9.32;2.13;;;;;;;5.78;98.23;99013.97;5061202;28;20051;-62
2023/06/03 03:08:55;;;;;;;9.23;2.38;;;;;;;5.77;98.51;99007.94;5050973;28;20059;-61
2023/06/03 03:11:28;;;;;;;5.45;1.98;;;;;;;5.79;98.71;99015.69;5062095;28;20147;-61
2023/06/03 03:13:59;;;;;;;4.95;2.03;;;;;;;5.71;98.17;99015.81;5050844;28;20071;-60
2023/06/03 03:16:29;;;;;;;4.85;1.90;;;;;;;5.69;99.04;99003.75;5056691;28;20059;-60
2023/06/03 03:19:00;;;;;;;12.65;2.83;;;;;;;5.65;99.61;99012.50;5060352;28;20498;-60
2023/06/03 03:21:31;;;;;;;6.75;2.20;;;;;;;5.63;99.53;99002.97;5051218;28;20056;-59
2023/06/03 03:24:02;;;;;;;11.65;2.80;;;;;;;5.75;100.00;99003.69;5060389;28;20067;-60
2023/06/03 03:26:34;;;;;;;9.30;2.15;;;;;;;5.74;100.00;99007.13;5050814;28;20440;-61
2023/06/03 03:29:06;;;;;;;9.02;2.22;;;;;;;5.79;99.62;99005.31;5060853;28;20128;-61
2023/06/03 03:31:37;;;;;;;10.07;2.22;;;;;;;5.79;99.66;99005.31;5050658;28;20105;-60
2023/06/03 03:34:09;;;;;;;11.88;3.03;;;;;;;5.91;99.49;99020.66;5061441;28;20163;-61
2023/06/03 03:36:39;;;;;;;11.23;2.45;;;;;;;5.93;99.37;99016.31;5050476;28;20130;-62
2023/06/03 03:39:10;;;;;;;10.02;1.95;;;;;;;5.82;98.18;99010.47;5060541;28;20398;-61
2023/06/03 03:41:45;;;;;;;8.38;1.80;;;;;;;5.82;99.30;99021.69;5048837;28;20362;-60
2023/06/03 03:44:16;;;;;;;7.93;2.50;;;;;;;5.88;99.25;99031.09;5044145;28;20148;-60
2023/06/03 03:46:53;;;;;;;12.10;1.90;;;;;;;5.89;98.70;99026.75;5029111;28;20071;-60
2023/06/03 03:49:30;;;;;;;13.02;2.60;;;;;;;5.87;98.52;99037.16;5060988;28;20555;-61
2023/06/03 03:52:05;;;;;;;10.25;2.55;;;;;;;5.76;98.69;99036.47;5030720;28;20106;-61
2023/06/03 03:54:39;;;;;;;10.57;2.30;;;;;;;5.59;98.54;99001.34;5029945;28;20489;-59
2023/06/03 03:57:16;;;;;;;8.65;2.03;;;;;;;5.87;98.69;99034.56;5052973;28;20077;-60
2023/06/03 03:59:47;;;;;;;10.60;2.60;;;;;;;5.84;98.22;99039.78;5050514;28;20059;-60
2023/06/03 04:02:17;;;;;;;8.38;2.20;;;;;;;5.78;98.40;99034.72;5060636;28;20048;-63
2023/06/03 04:04:48;;;;;;;7.97;2.85;;;;;;;5.63;98.45;99015.94;5049953;28;20532;-59
2023/06/03 04:07:20;;;;;;;13.05;2.70;;;;;;;5.76;98.38;99016.59;5060759;28;20057;-62
2023/06/03 04:09:52;;;;;;;8.48;2.38;;;;;;;5.72;97.78;99038.28;5049475;28;20052;-64
2023/06/03 04:12:32;;;;;;;13.43;3.35;;;;;;;5.40;98.45;98994.75;5060215;28;20048;-59
2023/06/03 04:15:04;;;;;;;8.02;2.30;;;;;;;5.70;97.54;99040.03;5049703;28;20075;-60
2023/06/03 04:17:40;;;;;;;4.93;2.13;;;;;;;5.71;97.69;99040.88;5050467;28;20466;-60
2023/06/03 04:20:28;;;;;;;9.77;2.80;;;;;;;5.89;98.08;99039.72;5060136;28;20467;-60
2023/06/03 04:23:00;;;;;;;7.53;1.88;;;;;;;6.07;97.18;99041.19;5039670;28;20383;-61
2023/06/03 04:25:31;;;;;;;11.32;2.25;;;;;;;6.23;95.34;99038.28;5040981;28;20064;-60
2023/06/03 04:28:03;;;;;;;11.07;2.30;;;;;;;6.29;94.76;99044.22;5050635;28;20059;-60
2023/06/03 04:30:34;;;;;;;7.30;2.25;;;;;;;6.35;94.16;99042.38;5039375;28;20586;-60
2023/06/03 04:33:05;;;;;;;8.77;2.15;;;;;;;6.33;93.63;99051.94;5050132;28;20040;-60
2023/06/03 04:35:36;;;;;;;8.95;2.05;;;;;;;6.39;93.56;99044.06;5040771;28;20044;-61
2023/06/03 04:38:06;;;;;;;8.02;2.83;;;;;;;6.43;92.37;99045.69;5050832;28;20071;-60
2023/06/03 04:40:38;;;;;;;8.43;2.13;;;;;;;6.31;92.17;99008.75;5040658;28;20109;-60
2023/06/03 04:43:11;;;;;;;12.73;2.55;;;;;;;6.46;91.67;99040.47;5051138;28;20043;-61
2023/06/03 04:45:44;;;;;;;12.70;2.80;;;;;;;6.47;91.10;99039.56;5040204;28;20127;-59
2023/06/03 04:48:14;;;;;;;8.32;2.00;;;;;;;6.38;91.54;99018.97;5049939;28;20102;-60
2023/06/03 04:50:46;;;;;;;11.30;2.17;;;;;;;6.50;90.57;99045.59;5040168;28;20460;-60
2023/06/03 04:53:17;;;;;;;9.18;2.47;;;;;;;6.58;91.92;99049.72;5050436;28;20101;-60
2023/06/03 04:55:47;;;;;;;10.00;2.10;;;;;;;6.69;90.66;99041.75;5039937;28;20467;-59
2023/06/03 04:58:20;;;;;;;9.48;1.85;;;;;;;6.95;90.02;99048.13;5050572;28;20056;-60
2023/06/03 05:00:50;;;;;;;9.20;2.45;;;;;;;7.08;88.70;99049.56;5039658;28;20052;-59
2023/06/03 05:03:22;;;;;;;9.65;2.17;;;;;;;7.10;88.79;99032.22;5050297;28;20087;-60
2023/06/03 05:05:53;;;;;;;7.75;1.90;;;;;;;7.10;88.17;99053.00;5039604;28;20051;-61
2023/06/03 05:08:23;;;;;;;10.02;2.72;;;;;;;7.22;89.56;99051.88;5049762;28;20055;-61
2023/06/03 05:10:54;;;;;;;8.88;2.42;;;;;;;7.35;87.85;99053.31;5048469;28;20063;-60
2023/06/03 05:13:26;;;;;;;6.85;2.10;;;;;;;6.91;86.79;99006.66;5059728;28;20052;-61
2023/06/03 05:15:57;;;;;;;4.95;1.92;;;;;;;7.08;87.45;99066.00;5048165;28;20052;-60
2023/06/03 05:18:27;;;;;;;5.63;1.50;;;;;;;7.12;87.00;99061.63;5059008;28;20093;-60
2023/06/03 05:20:58;;;;;;;12.07;2.35;;;;;;;7.18;87.22;99056.28;5034113;28;20052;-62
2023/06/03 05:23:29;;;;;;;5.40;1.85;;;;;;;7.07;87.02;99053.06;5044777;28;20459;-60
2023/06/03 05:25:59;;;;;;;9.77;2.20;;;;;;;7.03;87.76;99061.81;5049130;28;20052;-60
2023/06/03 05:28:32;;;;;;;10.00;2.33;;;;;;;6.94;87.80;99062.00;5041973;28;20185;-61
2023/06/03 05:31:02;;;;;;;6.72;2.10;;;;;;;6.86;88.16;99052.63;5049439;28;20072;-60
2023/06/03 05:33:35;;;;;;;10.07;1.90;;;;;;;6.98;88.44;99068.84;5039842;28;20048;-61
2023/06/03 05:36:06;;;;;;;9.50;2.08;;;;;;;7.02;88.73;99049.72;5049180;28;20087;-62
2023/06/03 05:38:36;;;;;;;10.13;1.77;;;;;;;6.98;87.94;99068.84;5039309;28;20064;-60
2023/06/03 05:41:07;;;;;;;7.75;2.00;;;;;;;6.85;88.03;99074.28;5049367;28;20131;-62
2023/06/03 05:43:39;;;;;;;5.63;1.95;;;;;;;6.98;89.13;99074.88;5039634;28;20140;-60
2023/06/03 05:46:10;;;;;;;8.55;1.70;;;;;;;7.05;87.38;99076.47;5049909;28;20156;-60
2023/06/03 05:48:40;;;;;;;6.05;1.55;;;;;;;7.05;86.28;99073.88;5039108;28;20189;-61
2023/06/03 05:51:11;;;;;;;10.88;1.95;;;;;;;7.06;86.69;99078.19;5049525;28;20056;-60
2023/06/03 05:53:43;;;;;;;8.60;1.70;;;;;;;7.08;86.85;99076.41;5038944;28;20052;-61
2023/06/03 05:56:15;;;;;;;9.95;2.17;;;;;;;7.02;88.49;99075.69;5049169;28;20395;-60
2023/06/03 05:58:47;;;;;;;10.43;1.75;;;;;;;6.98;88.04;99079.22;5039620;28;20527;-60
2023/06/03 06:01:17;;;;;;;10.50;2.42;;;;;;;6.89;88.74;99075.09;5050286;28;20044;-60
2023/06/03 06:03:48;;;;;;;12.20;2.05;;;;;;;6.30;89.22;98986.28;5040142;28;20052;-60
2023/06/03 06:06:19;;;;;;;7.35;1.70;;;;;;;6.74;89.43;99071.06;5049434;28;20043;-60
2023/06/03 06:08:50;;;;;;;6.57;1.80;;;;;;;6.76;90.18;99074.47;5048207;28;21520;-60
2023/06/03 06:11:21;;;;;;;6.35;1.90;;;;;;;6.70;89.69;99079.78;5058862;28;20150;-60
2023/06/03 06:13:53;;;;;;;11.25;2.20;;;;;;;6.70;90.06;99091.00;5048109;28;20072;-60
2023/06/03 06:16:23;;;;;;;17.77;3.08;;;;;;;6.53;90.09;99093.06;5059020;28;20048;-61
2023/06/03 06:18:54;;;;;;;8.68;2.00;;;;;;;6.36;91.37;99098.56;5023336;28;20059;-62
2023/06/03 06:21:24;;;;;;;7.13;1.88;;;;;;;6.30;91.36;99105.63;5044261;28;20054;-61
2023/06/03 06:23:55;;;;;;;6.45;1.60;;;;;;;6.36;91.85;99095.97;5047673;28;20486;-60
2023/06/03 06:26:26;;;;;;;7.47;2.00;;;;;;;6.36;91.74;99101.16;5058650;28;20093;-61
2023/06/03 06:28:59;;;;;;;5.20;2.03;;;;;;;6.34;91.34;99097.75;5030484;28;20101;-61
2023/06/03 06:31:30;;;;;;;6.30;2.00;;;;;;;6.37;91.86;99102.88;5051007;28;20055;-61
2023/06/03 06:34:01;;;;;;;9.98;1.67;;;;;;;6.46;91.79;99097.53;5039490;28;20052;-60
2023/06/03 06:36:40;;;;;;;10.98;1.70;;;;;;;6.35;91.98;99094.28;5044573;28;20131;-60
2023/06/03 06:39:43;;;;;;;5.63;1.75;;;;;;;6.37;92.35;99097.69;5058539;28;20113;-60
2023/06/03 06:42:15;;;;;;;9.77;2.22;;;;;;;6.34;92.56;99092.56;5058274;28;20091;-61
2023/06/03 06:44:48;;;;;;;9.60;2.15;;;;;;;6.26;93.55;99097.03;5048015;28;20073;-61
2023/06/03 06:47:23;;;;;;;7.32;2.63;;;;;;;6.15;93.77;99086.84;5058609;28;20156;-61
2023/06/03 06:49:56;;;;;;;11.00;2.30;;;;;;;6.32;93.71;99109.91;5025767;28;20111;-60
2023/06/03 06:52:27;;;;;;;7.97;1.80;;;;;;;6.26;93.17;99104.81;5049854;28;20052;-61
2023/06/03 06:54:58;;;;;;;11.15;2.38;;;;;;;6.33;93.23;99116.78;5050322;28;20056;-61
2023/06/03 06:57:31;;;;;;;10.07;1.80;;;;;;;6.42;93.38;99111.44;5057493;28;20462;-60
2023/06/03 07:00:04;;;;;;;6.15;2.17;;;;;;;6.53;92.44;99108.66;5061214;28;20056;-61
2023/06/03 07:02:34;;;;;;;11.07;1.92;;;;;;;6.48;91.89;99100.94;5050461;28;20055;-60
2023/06/03 07:05:06;;;;;;;8.85;2.00;;;;;;;6.56;92.38;99107.72;5061339;28;20527;-61
2023/06/03 07:07:36;;;;;;;7.85;1.77;;;;;;;6.67;91.17;99116.19;5050837;28;20040;-61
2023/06/03 07:10:08;;;;;;;6.32;1.70;;;;;;;6.74;91.23;99104.81;5061750;28;20067;-62
2023/06/03 07:12:39;;;;;;;9.88;2.10;;;;;;;6.90;90.45;99114.00;5050081;28;20446;-61
2023/06/03 07:15:12;;;;;;;13.38;2.58;;;;;;;7.12;90.86;99118.75;5061589;28;20068;-61
2023/06/03 07:17:42;;;;;;;6.88;1.92;;;;;;;7.19;88.61;99115.16;5050897;28;20420;-61
2023/06/03 07:20:21;;;;;;;10.70;1.98;;;;;;;7.35;88.60;99116.53;5061376;28;20059;-60
2023/06/03 07:22:52;;;;;;;7.35;2.05;;;;;;;7.38;87.79;99115.59;5050995;28;20087;-61
2023/06/03 07:25:37;;;;;;;7.25;2.30;;;;;;;7.32;87.05;99110.56;5061874;28;20925;-60
2023/06/03 07:28:13;;;;;;;7.97;2.60;;;;;;;7.43;87.09;99112.91;5050553;28;20055;-61
2023/06/03 07:30:47;;;;;;;8.75;2.05;;;;;;;7.37;86.25;99107.84;5049214;28;20427;-60
2023/06/03 07:33:28;;;;;;;7.45;2.10;;;;;;;7.37;86.76;99108.69;5060764;28;20042;-60
2023/06/03 07:36:00;;;;;;;7.35;1.90;;;;;;;7.28;85.60;99104.53;5049598;28;20054;-62
2023/06/03 07:39:04;;;;;;;8.77;1.88;;;;;;;7.33;86.91;99123.50;5050267;28;20047;-61
2023/06/03 07:41:38;;;;;;;5.47;1.65;;;;;;;7.25;86.32;99115.00;5050087;28;20147;-60
2023/06/03 07:44:10;;;;;;;8.88;1.90;;;;;;;7.18;86.33;99116.03;5061051;28;20143;-61
2023/06/03 07:46:44;;;;;;;5.93;1.50;;;;;;;7.18;87.36;99129.00;5049309;28;20051;-61
2023/06/03 07:49:18;;;;;;;6.55;1.98;;;;;;;7.20;87.55;99132.44;5061071;28;20075;-60
2023/06/03 07:51:50;;;;;;;5.97;1.92;;;;;;;7.23;87.68;99121.13;5050804;28;21849;-60
2023/06/03 07:54:21;;;;;;;12.68;2.00;;;;;;;7.35;87.90;99132.13;5060701;28;20043;-61
2023/06/03 07:56:52;;;;;;;10.50;2.10;;;;;;;7.34;87.36;99130.41;5050209;28;20125;-60
2023/06/03 07:59:23;;;;;;;9.27;1.85;;;;;;;7.41;86.57;99140.66;5061210;28;20216;-60
2023/06/03 08:01:59;;;;;;;6.15;1.40;;;;;;;7.37;87.49;99150.28;5050036;28;21753;-58
2023/06/03 08:04:34;;;;;;;5.50;1.58;;;;;;;7.19;86.65;99140.25;5052239;28;20048;-58
2023/06/03 08:07:05;;;;;;;10.07;1.38;;;;;;;7.28;86.03;99150.47;5060489;28;20071;-61
2023/06/03 08:09:36;;;;;;;7.72;1.45;;;;;;;7.12;86.77;99140.41;5049385;28;20051;-59
2023/06/03 08:12:09;;;;;;;7.40;1.83;;;;;;;6.88;87.04;99118.34;5060068;28;20085;-61
2023/06/03 08:14:41;;;;;;;8.23;1.30;;;;;;;6.77;87.07;99106.50;5049571;28;20092;-60
2023/06/03 08:17:15;;;;;;;9.68;1.98;;;;;;;6.95;87.21;99149.41;5059763;28;20102;-62
2023/06/03 08:19:47;;;;;;;9.80;1.60;;;;;;;6.88;87.33;99159.91;5049802;28;20123;-61
2023/06/03 08:22:41;;;;;;;8.02;1.52;;;;;;;6.95;88.06;99165.00;5060752;28;20086;-60
2023/06/03 08:25:12;;;;;;;7.13;1.55;;;;;;;6.98;87.95;99170.13;5059986;28;20553;-60
2023/06/03 08:27:43;;;;;;;8.60;1.52;;;;;;;6.86;87.76;99122.75;5049132;28;20470;-61
2023/06/03 08:30:14;;;;;;;7.53;1.52;;;;;;;7.15;86.90;99173.25;5059771;28;20048;-62
2023/06/03 08:32:47;;;;;;;8.50;1.83;;;;;;;7.13;86.52;99172.41;5049002;28;20052;-61
2023/06/03 08:35:21;;;;;;;7.57;2.15;;;;;;;7.02;86.44;99138.03;5060005;28;20059;-60
2023/06/03 08:37:51;;;;;;;8.52;1.20;;;;;;;7.33;86.06;99170.25;5049742;28;20059;-60
2023/06/03 08:40:25;;;;;;;7.82;1.38;;;;;;;7.38;84.89;99161.53;5059966;28;20048;-61
2023/06/03 08:43:03;;;;;;;7.40;1.30;;;;;;;7.57;84.75;99170.66;5048912;28;20052;-60
2023/06/03 08:45:42;;;;;;;8.38;2.03;;;;;;;7.75;83.08;99172.84;5048486;28;20047;-61
2023/06/03 08:48:28;;;;;;;9.25;1.50;;;;;;;7.89;82.94;99177.75;5059804;28;20060;-60
2023/06/03 08:51:06;;;;;;;3.95;1.50;;;;;;;7.97;82.72;99177.56;5048510;28;20052;-61
2023/06/03 08:53:48;;;;;;;3.53;1.48;;;;;;;7.95;82.17;99181.94;5048967;28;20044;-62
2023/06/03 08:56:21;;;;;;;12.80;1.30;;;;;;;8.07;82.42;99176.44;5059584;28;20149;-61
2023/06/03 08:58:56;;;;;;;11.70;2.45;;;;;;;8.07;83.05;99179.06;5049344;28;20056;-63
2023/06/03 09:01:34;;;;;;;6.13;1.70;;;;;;;7.84;82.11;99150.09;5058977;28;20048;-62
2023/06/03 09:04:13;;;;;;;6.90;2.10;;;;;;;7.68;81.65;99140.06;5048865;28;20055;-61
2023/06/03 09:06:49;;;;;;;6.20;1.52;;;;;;;7.88;81.82;99182.97;5048297;28;20056;-61
2023/06/03 09:09:20;;;;;;;7.25;1.58;;;;;;;8.04;81.45;99178.25;5041009;28;20055;-60
2023/06/03 09:11:52;;;;;;;8.02;1.63;;;;;;;7.82;81.23;99185.72;5048349;28;20052;-61
2023/06/03 09:14:23;;;;;;;11.02;1.42;;;;;;;7.25;82.49;99147.94;5059700;28;20090;-59
2023/06/03 09:16:55;;;;;;;5.10;1.17;;;;;;;7.31;82.97;99177.25;5021674;28;20279;-60
2023/06/03 09:19:29;;;;;;;4.85;1.20;;;;;;;7.31;83.72;99192.84;5050141;28;20060;-60
2023/06/03 09:22:03;;;;;;;5.55;1.42;;;;;;;7.29;83.41;99198.97;5048319;28;20118;-58
2023/06/03 09:24:37;;;;;;;9.00;1.25;;;;;;;7.09;83.81;99188.97;5049158;28;20102;-60
2023/06/03 09:27:08;;;;;;;7.45;2.75;;;;;;;6.93;84.72;99184.94;5037732;28;20401;-60
2023/06/03 09:29:43;;;;;;;5.53;1.83;;;;;;;6.77;85.08;99174.84;5048753;28;20079;-60
2023/06/03 09:32:13;;;;;;;4.88;1.40;;;;;;;6.69;85.91;99181.91;5059587;28;20044;-60
2023/06/03 09:34:46;;;;;;;11.20;1.58;;;;;;;6.46;86.78;99170.22;5048727;28;20537;-59
2023/06/03 09:37:17;;;;;;;5.45;1.20;;;;;;;6.41;87.23;99184.97;5059819;28;20056;-61
2023/06/03 09:39:50;;;;;;;2.30;1.38;;;;;;;6.38;88.08;99177.25;5048954;28;20110;-60
2023/06/03 09:42:21;;;;;;;3.75;1.13;;;;;;;6.33;88.04;99173.88;5059169;28;20052;-61
2023/06/03 09:44:55;;;;;;;6.55;2.28;;;;;;;6.28;88.38;99170.50;5048361;28;20052;-61
2023/06/03 09:47:38;;;;;;;7.30;1.50;;;;;;;6.18;89.06;99174.13;5059069;28;20044;-60
2023/06/03 09:50:15;;;;;;;8.68;1.77;;;;;;;6.03;89.80;99160.50;5049026;28;20048;-61
2023/06/03 09:52:46;;;;;;;11.40;1.88;;;;;;;6.01;90.29;99176.97;5048678;28;20415;-62
2023/06/03 09:55:18;;;;;;;12.75;1.60;;;;;;;5.94;90.43;99181.41;5058914;28;20063;-61
2023/06/03 09:58:04;;;;;;;7.70;2.00;;;;;;;5.82;91.25;99166.00;5047840;28;20141;-62
2023/06/03 10:00:48;;;;;;;7.65;1.70;;;;;;;5.68;91.28;99148.03;5048267;28;20052;-61
2023/06/03 10:03:25;;;;;;;4.13;1.92;;;;;;;5.82;91.43;99171.19;5059298;28;20058;-61
2023/06/03 10:06:00;;;;;;;7.32;1.55;;;;;;;5.73;91.61;99181.69;5038750;28;20060;-62
2023/06/03 10:08:33;;;;;;;4.85;1.52;;;;;;;5.71;92.10;99173.06;5039504;28;20043;-62
2023/06/03 10:11:46;;;;;;;13.35;4.10;;;;;;;5.66;91.64;99174.88;5048841;28;20044;-62
2023/06/03 10:14:17;;;;;;;16.90;3.35;;;;;;;5.56;92.00;99177.56;5058150;28;20935;-62
2023/06/03 10:17:06;;;;;;;8.23;2.22;;;;;;;5.52;92.34;99173.31;5012668;28;20842;-61
2023/06/03 10:19:38;;;;;;;8.93;1.95;;;;;;;5.42;92.54;99174.34;5047368;28;20063;-62
2023/06/03 10:22:24;;;;;;;7.88;1.80;;;;;;;5.39;93.46;99169.16;5058922;28;20101;-61
2023/06/03 10:25:00;;;;;;;5.68;2.10;;;;;;;5.46;93.49;99186.34;5048199;28;20054;-62
2023/06/03 10:27:38;;;;;;;14.32;6.53;;;;;;;5.45;94.03;99176.03;5049623;28;20048;-62
2023/06/03 10:30:14;;;;;;;16.75;5.28;;;;;;;5.54;93.82;99187.13;5062011;28;20497;-61
2023/06/03 10:32:49;;;;;;;13.75;4.38;;;;;;;5.60;94.21;99181.00;5050629;28;20043;-61
2023/06/03 10:35:24;;;;;;;15.55;4.00;;;;;;;5.66;93.91;99180.03;5043569;28;20056;-61
2023/06/03 10:38:12;;;;;;;9.32;3.45;;;;;;;5.60;93.77;99184.44;5040419;28;20478;-62
2023/06/03 10:40:44;;;;;;;5.15;2.45;;;;;;;5.42;93.74;99161.38;5051114;28;20052;-62
2023/06/03 10:43:18;;;;;;;5.95;2.97;;;;;;;5.47;94.05;99175.13;5061850;28;21033;-61
2023/06/03 10:45:54;;;;;;;7.15;2.63;;;;;;;5.42;94.55;99166.56;5051027;28;20054;-62
2023/06/03 10:48:28;;;;;;;9.27;2.28;;;;;;;5.49;94.54;99173.38;5061603;28;20059;-62
2023/06/03 10:51:09;;;;;;;7.63;2.25;;;;;;;5.38;94.70;99175.22;5051528;28;20055;-62
2023/06/03 10:54:02;;;;;;;7.00;2.63;;;;;;;5.39;95.59;99177.81;5050772;28;20048;-63
2023/06/03 10:56:44;;;;;;;14.50;3.05;;;;;;;5.41;95.38;99170.00;5051286;28;20048;-62
2023/06/03 10:59:54;;;;;;;10.88;4.38;;;;;;;5.36;95.38;99171.81;5061647;28;20048;-62
2023/06/03 11:02:29;;;;;;;9.15;2.50;;;;;;;5.29;96.00;99159.78;5061264;28;20052;-62
2023/06/03 11:05:27;;;;;;;7.25;2.35;;;;;;;5.31;95.96;99168.41;5051320;28;20090;-62
2023/06/03 11:08:13;;;;;;;13.63;2.42;;;;;;;5.25;96.18;99173.69;5029847;28;20460;-63
2023/06/03 11:10:48;;;;;;;5.25;1.80;;;;;;;5.27;96.69;99182.28;5021962;28;20045;-62
2023/06/03 11:13:45;;;;;;;8.98;1.95;;;;;;;5.30;96.69;99177.06;5033184;28;20049;-62
2023/06/03 11:16:16;;;;;;;5.18;1.83;;;;;;;5.34;96.69;99178.72;5041751;28;20501;-62
2023/06/03 11:18:47;;;;;;;3.05;1.50;;;;;;;5.36;96.77;99176.97;5049374;28;20266;-61
2023/06/03 11:22:09;;;;;;;3.75;1.90;;;;;;;5.29;96.27;99183.09;5039705;28;20049;-62
2023/06/03 11:24:55;;;;;;;5.18;1.60;;;;;;;5.25;96.74;99179.72;5050444;28;20403;-61
2023/06/03 11:27:30;;;;;;;4.40;1.80;;;;;;;5.23;97.20;99193.56;5061591;28;20046;-61
2023/06/03 11:30:07;;;;;;;9.00;2.10;;;;;;;5.15;97.33;99168.59;5051256;28;20117;-61
2023/06/03 11:32:39;;;;;;;5.72;1.80;;;;;;;5.31;97.40;99174.44;5051569;28;20044;-60
2023/06/03 11:35:29;;;;;;;4.05;2.05;;;;;;;5.38;97.19;99177.81;5061556;28;20074;-62
2023/06/03 11:38:00;;;;;;;5.88;1.90;;;;;;;5.26;96.66;99176.22;5050462;28;20140;-61
2023/06/03 11:40:45;;;;;;;5.70;1.90;;;;;;;5.12;96.34;99168.66;5051394;28;20082;-62
2023/06/03 11:43:20;;;;;;;5.70;2.85;;;;;;;5.12;96.39;99173.81;5039031;28;20045;-62
2023/06/03 11:45:53;;;;;;;5.65;2.17;;;;;;;5.19;97.32;99184.94;5040459;28;20127;-61
2023/06/03 11:48:37;;;;;;;7.25;2.80;;;;;;;5.26;97.52;99181.41;5050975;28;20047;-62
2023/06/03 11:51:10;;;;;;;7.00;3.33;;;;;;;5.26;97.29;99167.63;5038873;28;20076;-60
2023/06/03 11:54:16;;;;;;;6.97;3.63;;;;;;;4.73;97.07;99093.16;5035167;28;20048;-63
2023/06/03 12:00:32;;;;;;;8.98;3.08;;;;;;;5.34;97.54;99153.72;4966688;28;20045;-62
2023/06/03 12:03:10;;;;;;;4.97;1.90;;;;;;;5.39;97.18;99161.38;4978999;28;20141;-61
2023/06/03 12:06:02;;;;;;;4.57;2.05;;;;;;;5.39;97.09;99156.22;4968517;28;20333;-62
2023/06/03 12:08:49;;;;;;;5.07;1.70;;;;;;;5.41;97.10;99164.81;4968216;28;20041;-62
2023/06/03 12:11:32;;;;;;;11.45;2.40;;;;;;;5.36;97.07;99145.91;4978543;28;20045;-61
2023/06/03 12:14:05;;;;;;;5.80;1.70;;;;;;;5.36;96.56;99156.25;4969016;28;20046;-61
2023/06/03 12:16:40;;;;;;;5.82;1.98;;;;;;;5.34;96.86;99160.59;4969325;28;20059;-62